sensor_id;sensor_type;location;lat;lon;timestamp;pressure;altitude;pressure_sealevel;temperature;humidity
81299;BME280;70766;53.170;18.160;2024-02-04T00:00:50;100699.20;;;6.46;86.89
81299;BME280;70766;53.170;18.160;2024-02-04T00:03:38;100690.80;;;6.49;86.81
81299;BME280;70766;53.170;18.160;2024-02-04T00:06:06;100686.05;;;6.49;86.71
81299;BME280;70766;53.170;18.160;2024-02-04T00:08:34;100691.05;;;6.49;86.59
81299;BME280;70766;53.170;18.160;2024-02-04T00:11:03;100694.27;;;6.45;86.64
81299;BME280;70766;53.170;18.160;2024-02-04T00:13:32;100696.02;;;6.41;86.71
81299;BME280;70766;53.170;18.160;2024-02-04T00:16:00;100693.44;;;6.39;86.69
81299;BME280;70766;53.170;18.160;2024-02-04T00:18:29;100690.41;;;6.34;86.96
81299;BME280;70766;53.170;18.160;2024-02-04T00:20:57;100693.85;;;6.40;86.71
81299;BME280;70766;53.170;18.160;2024-02-04T00:23:25;100704.81;;;6.42;86.58
81299;BME280;70766;53.170;18.160;2024-02-04T00:25:53;100691.67;;;6.42;86.63
81299;BME280;70766;53.170;18.160;2024-02-04T00:28:21;100688.93;;;6.42;86.54
81299;BME280;70766;53.170;18.160;2024-02-04T00:30:49;100683.39;;;6.40;86.58
81299;BME280;70766;53.170;18.160;2024-02-04T00:33:21;100680.91;;;6.37;86.52
81299;BME280;70766;53.170;18.160;2024-02-04T00:35:50;100676.48;;;6.33;86.58
81299;BME280;70766;53.170;18.160;2024-02-04T00:38:18;100684.83;;;6.29;86.76
81299;BME280;70766;53.170;18.160;2024-02-04T00:40:46;100686.06;;;6.22;86.98
81299;BME280;70766;53.170;18.160;2024-02-04T00:43:14;100686.70;;;6.15;87.08
81299;BME280;70766;53.170;18.160;2024-02-04T00:45:42;100689.93;;;6.09;87.05
81299;BME280;70766;53.170;18.160;2024-02-04T00:48:11;100688.16;;;6.08;86.76
81299;BME280;70766;53.170;18.160;2024-02-04T00:50:39;100690.41;;;6.08;86.63
81299;BME280;70766;53.170;18.160;2024-02-04T00:53:07;100691.97;;;6.09;86.54
81299;BME280;70766;53.170;18.160;2024-02-04T00:55:35;100692.89;;;6.10;86.20
81299;BME280;70766;53.170;18.160;2024-02-04T00:58:03;100692.61;;;6.11;86.09
81299;BME280;70766;53.170;18.160;2024-02-04T01:00:31;100686.53;;;6.11;85.93
81299;BME280;70766;53.170;18.160;2024-02-04T01:03:00;100691.86;;;6.09;85.78
81299;BME280;70766;53.170;18.160;2024-02-04T01:05:28;100692.81;;;6.09;85.94
81299;BME280;70766;53.170;18.160;2024-02-04T01:07:56;100684.47;;;6.09;85.42
81299;BME280;70766;53.170;18.160;2024-02-04T01:10:24;100686.08;;;6.10;85.44
81299;BME280;70766;53.170;18.160;2024-02-04T01:12:53;100687.44;;;6.11;85.07
81299;BME280;70766;53.170;18.160;2024-02-04T01:15:21;100683.20;;;6.09;85.34
81299;BME280;70766;53.170;18.160;2024-02-04T01:17:49;100679.80;;;6.06;85.38
81299;BME280;70766;53.170;18.160;2024-02-04T01:20:18;100677.46;;;6.07;85.69
81299;BME280;70766;53.170;18.160;2024-02-04T01:22:46;100675.87;;;6.07;85.63
81299;BME280;70766;53.170;18.160;2024-02-04T01:25:16;100677.55;;;6.07;85.54
81299;BME280;70766;53.170;18.160;2024-02-04T01:27:46;100676.19;;;6.07;85.46
81299;BME280;70766;53.170;18.160;2024-02-04T01:30:15;100679.63;;;6.06;85.52
81299;BME280;70766;53.170;18.160;2024-02-04T01:32:43;100680.95;;;6.07;85.37
81299;BME280;70766;53.170;18.160;2024-02-04T01:35:11;100682.29;;;6.06;85.18
81299;BME280;70766;53.170;18.160;2024-02-04T01:37:39;100674.17;;;6.06;85.41
81299;BME280;70766;53.170;18.160;2024-02-04T01:40:08;100671.03;;;6.07;85.02
81299;BME280;70766;53.170;18.160;2024-02-04T01:42:36;100671.80;;;6.08;84.26
81299;BME280;70766;53.170;18.160;2024-02-04T01:45:05;100671.89;;;6.16;82.83
81299;BME280;70766;53.170;18.160;2024-02-04T01:47:33;100673.00;;;6.16;83.14
81299;BME280;70766;53.170;18.160;2024-02-04T01:50:03;100666.42;;;6.15;83.27
81299;BME280;70766;53.170;18.160;2024-02-04T01:52:33;100657.69;;;6.15;83.32
81299;BME280;70766;53.170;18.160;2024-02-04T01:55:03;100648.66;;;6.12;83.55
81299;BME280;70766;53.170;18.160;2024-02-04T01:57:33;100649.56;;;6.11;83.50
81299;BME280;70766;53.170;18.160;2024-02-04T02:00:04;100658.21;;;6.09;83.43
81299;BME280;70766;53.170;18.160;2024-02-04T02:02:34;100659.36;;;6.08;83.18
81299;BME280;70766;53.170;18.160;2024-02-04T02:05:06;100646.73;;;6.08;83.09
81299;BME280;70766;53.170;18.160;2024-02-04T02:07:34;100648.34;;;6.05;82.62
81299;BME280;70766;53.170;18.160;2024-02-04T02:10:03;100651.13;;;6.02;82.45
81299;BME280;70766;53.170;18.160;2024-02-04T02:12:39;100657.98;;;6.00;81.56
81299;BME280;70766;53.170;18.160;2024-02-04T02:15:15;100655.86;;;5.98;81.38
81299;BME280;70766;53.170;18.160;2024-02-04T02:18:01;100673.52;;;5.90;81.36
81299;BME280;70766;53.170;18.160;2024-02-04T02:20:39;100678.13;;;5.83;81.34
81299;BME280;70766;53.170;18.160;2024-02-04T02:23:20;100670.36;;;5.77;80.95
81299;BME280;70766;53.170;18.160;2024-02-04T02:25:51;100668.77;;;5.75;80.60
81299;BME280;70766;53.170;18.160;2024-02-04T02:28:19;100664.68;;;5.72;80.79
81299;BME280;70766;53.170;18.160;2024-02-04T02:30:47;100670.77;;;5.69;81.00
81299;BME280;70766;53.170;18.160;2024-02-04T02:33:16;100662.55;;;5.69;80.72
81299;BME280;70766;53.170;18.160;2024-02-04T02:35:46;100659.80;;;5.77;80.15
81299;BME280;70766;53.170;18.160;2024-02-04T02:38:46;100655.88;;;5.77;80.26
81299;BME280;70766;53.170;18.160;2024-02-04T02:41:20;100647.17;;;5.74;80.46
81299;BME280;70766;53.170;18.160;2024-02-04T02:43:51;100647.84;;;5.69;80.06
81299;BME280;70766;53.170;18.160;2024-02-04T02:46:20;100644.58;;;5.61;80.42
81299;BME280;70766;53.170;18.160;2024-02-04T02:48:49;100654.41;;;5.54;80.78
81299;BME280;70766;53.170;18.160;2024-02-04T02:51:18;100659.17;;;5.44;81.22
81299;BME280;70766;53.170;18.160;2024-02-04T02:53:46;100667.74;;;5.34;81.68
81299;BME280;70766;53.170;18.160;2024-02-04T02:56:14;100678.15;;;5.25;81.91
81299;BME280;70766;53.170;18.160;2024-02-04T02:58:42;100681.48;;;5.19;82.14
81299;BME280;70766;53.170;18.160;2024-02-04T03:01:10;100684.48;;;5.16;82.46
81299;BME280;70766;53.170;18.160;2024-02-04T03:03:38;100688.70;;;5.15;82.40
81299;BME280;70766;53.170;18.160;2024-02-04T03:06:07;100687.21;;;5.14;82.60
81299;BME280;70766;53.170;18.160;2024-02-04T03:08:35;100685.19;;;5.16;82.66
81299;BME280;70766;53.170;18.160;2024-02-04T03:11:04;100685.19;;;5.17;82.83
81299;BME280;70766;53.170;18.160;2024-02-04T03:13:32;100689.95;;;5.17;82.70
81299;BME280;70766;53.170;18.160;2024-02-04T03:16:00;100697.73;;;5.22;82.49
81299;BME280;70766;53.170;18.160;2024-02-04T03:18:28;100697.52;;;5.26;82.20
81299;BME280;70766;53.170;18.160;2024-02-04T03:20:57;100693.50;;;5.30;82.21
81299;BME280;70766;53.170;18.160;2024-02-04T03:23:25;100694.13;;;5.36;81.53
81299;BME280;70766;53.170;18.160;2024-02-04T03:25:53;100701.06;;;5.39;81.51
81299;BME280;70766;53.170;18.160;2024-02-04T03:28:24;100698.85;;;5.40;81.67
81299;BME280;70766;53.170;18.160;2024-02-04T03:30:52;100703.79;;;5.41;81.23
81299;BME280;70766;53.170;18.160;2024-02-04T03:33:21;100706.39;;;5.40;80.58
81299;BME280;70766;53.170;18.160;2024-02-04T03:35:49;100704.79;;;5.44;80.57
81299;BME280;70766;53.170;18.160;2024-02-04T03:38:18;100704.49;;;5.48;79.29
81299;BME280;70766;53.170;18.160;2024-02-04T03:40:47;100705.93;;;5.49;79.85
81299;BME280;70766;53.170;18.160;2024-02-04T03:43:17;100707.61;;;5.49;78.96
81299;BME280;70766;53.170;18.160;2024-02-04T03:45:45;100705.37;;;5.50;79.36
81299;BME280;70766;53.170;18.160;2024-02-04T03:48:13;100697.46;;;5.49;79.19
81299;BME280;70766;53.170;18.160;2024-02-04T03:50:41;100702.43;;;5.50;78.58
81299;BME280;70766;53.170;18.160;2024-02-04T03:53:10;100713.85;;;5.51;78.62
81299;BME280;70766;53.170;18.160;2024-02-04T03:55:38;100707.48;;;5.54;78.46
81299;BME280;70766;53.170;18.160;2024-02-04T03:58:06;100705.35;;;5.54;78.24
81299;BME280;70766;53.170;18.160;2024-02-04T04:00:34;100696.92;;;5.54;78.53
81299;BME280;70766;53.170;18.160;2024-02-04T04:03:02;100679.83;;;5.54;78.26
81299;BME280;70766;53.170;18.160;2024-02-04T04:05:30;100680.81;;;5.51;78.28
81299;BME280;70766;53.170;18.160;2024-02-04T04:07:59;100666.54;;;5.48;78.56
81299;BME280;70766;53.170;18.160;2024-02-04T04:10:27;100668.27;;;5.41;78.88
81299;BME280;70766;53.170;18.160;2024-02-04T04:12:55;100669.95;;;5.34;78.74
81299;BME280;70766;53.170;18.160;2024-02-04T04:15:23;100671.66;;;5.27;78.95
81299;BME280;70766;53.170;18.160;2024-02-04T04:17:51;100671.48;;;5.20;79.28
81299;BME280;70766;53.170;18.160;2024-02-04T04:20:19;100667.92;;;5.18;79.45
81299;BME280;70766;53.170;18.160;2024-02-04T04:22:47;100664.55;;;5.15;79.69
81299;BME280;70766;53.170;18.160;2024-02-04T04:25:16;100662.84;;;5.12;80.07
81299;BME280;70766;53.170;18.160;2024-02-04T04:27:44;100662.01;;;5.10;80.10
81299;BME280;70766;53.170;18.160;2024-02-04T04:30:13;100653.48;;;5.07;80.55
81299;BME280;70766;53.170;18.160;2024-02-04T04:32:41;100655.42;;;5.02;80.83
81299;BME280;70766;53.170;18.160;2024-02-04T04:35:09;100653.74;;;4.97;80.98
81299;BME280;70766;53.170;18.160;2024-02-04T04:37:37;100658.71;;;4.94;81.57
81299;BME280;70766;53.170;18.160;2024-02-04T04:40:06;100661.83;;;4.91;81.68
81299;BME280;70766;53.170;18.160;2024-02-04T04:42:34;100664.31;;;4.89;81.86
81299;BME280;70766;53.170;18.160;2024-02-04T04:45:02;100664.25;;;4.91;82.00
81299;BME280;70766;53.170;18.160;2024-02-04T04:47:30;100659.27;;;4.97;82.12
81299;BME280;70766;53.170;18.160;2024-02-04T04:49:58;100660.82;;;5.00;82.30
81299;BME280;70766;53.170;18.160;2024-02-04T04:52:27;100652.46;;;5.00;82.28
81299;BME280;70766;53.170;18.160;2024-02-04T04:54:55;100646.61;;;4.99;82.46
81299;BME280;70766;53.170;18.160;2024-02-04T04:57:24;100641.95;;;4.96;82.83
81299;BME280;70766;53.170;18.160;2024-02-04T04:59:52;100644.06;;;4.94;82.90
81299;BME280;70766;53.170;18.160;2024-02-04T05:02:20;100645.11;;;4.92;83.42
81299;BME280;70766;53.170;18.160;2024-02-04T05:04:49;100640.20;;;4.96;83.51
81299;BME280;70766;53.170;18.160;2024-02-04T05:07:17;100635.02;;;4.98;83.79
81299;BME280;70766;53.170;18.160;2024-02-04T05:09:45;100626.02;;;4.95;84.00
81299;BME280;70766;53.170;18.160;2024-02-04T05:12:14;100627.41;;;4.89;84.08
81299;BME280;70766;53.170;18.160;2024-02-04T05:14:42;100625.20;;;4.84;84.95
81299;BME280;70766;53.170;18.160;2024-02-04T05:17:10;100622.11;;;4.81;84.95
81299;BME280;70766;53.170;18.160;2024-02-04T05:19:41;100628.33;;;4.78;85.19
81299;BME280;70766;53.170;18.160;2024-02-04T05:22:10;100628.63;;;4.78;85.77
81299;BME280;70766;53.170;18.160;2024-02-04T05:24:38;100629.02;;;4.78;85.94
81299;BME280;70766;53.170;18.160;2024-02-04T05:27:06;100630.20;;;4.77;86.12
81299;BME280;70766;53.170;18.160;2024-02-04T05:29:34;100623.11;;;4.77;86.60
81299;BME280;70766;53.170;18.160;2024-02-04T05:32:02;100631.17;;;4.77;86.44
81299;BME280;70766;53.170;18.160;2024-02-04T05:34:30;100628.98;;;4.78;87.08
81299;BME280;70766;53.170;18.160;2024-02-04T05:36:59;100624.34;;;4.85;86.64
81299;BME280;70766;53.170;18.160;2024-02-04T05:39:28;100618.33;;;4.85;86.76
81299;BME280;70766;53.170;18.160;2024-02-04T05:41:56;100619.45;;;4.86;86.95
81299;BME280;70766;53.170;18.160;2024-02-04T05:44:24;100623.38;;;4.90;86.80
81299;BME280;70766;53.170;18.160;2024-02-04T05:46:52;100627.09;;;4.93;86.80
81299;BME280;70766;53.170;18.160;2024-02-04T05:49:20;100630.31;;;4.93;86.55
81299;BME280;70766;53.170;18.160;2024-02-04T05:51:48;100628.36;;;4.94;86.54
81299;BME280;70766;53.170;18.160;2024-02-04T05:54:17;100635.36;;;4.95;86.32
81299;BME280;70766;53.170;18.160;2024-02-04T05:56:45;100638.35;;;4.97;85.84
81299;BME280;70766;53.170;18.160;2024-02-04T05:59:13;100632.20;;;4.98;85.89
81299;BME280;70766;53.170;18.160;2024-02-04T06:01:41;100634.23;;;4.97;85.53
81299;BME280;70766;53.170;18.160;2024-02-04T06:04:09;100628.44;;;4.94;85.78
81299;BME280;70766;53.170;18.160;2024-02-04T06:06:37;100636.12;;;4.89;85.94
81299;BME280;70766;53.170;18.160;2024-02-04T06:09:05;100620.36;;;4.91;85.81
81299;BME280;70766;53.170;18.160;2024-02-04T06:11:34;100616.80;;;4.91;85.66
81299;BME280;70766;53.170;18.160;2024-02-04T06:14:02;100623.58;;;4.87;85.51
81299;BME280;70766;53.170;18.160;2024-02-04T06:16:30;100620.83;;;4.80;85.48
81299;BME280;70766;53.170;18.160;2024-02-04T06:18:58;100611.25;;;4.76;85.33
81299;BME280;70766;53.170;18.160;2024-02-04T06:21:28;100615.82;;;4.70;85.59
81299;BME280;70766;53.170;18.160;2024-02-04T06:23:56;100620.98;;;4.66;85.71
81299;BME280;70766;53.170;18.160;2024-02-04T06:26:24;100622.08;;;4.62;85.79
81299;BME280;70766;53.170;18.160;2024-02-04T06:28:52;100620.45;;;4.58;85.79
81299;BME280;70766;53.170;18.160;2024-02-04T06:31:21;100620.81;;;4.54;85.93
81299;BME280;70766;53.170;18.160;2024-02-04T06:33:49;100614.11;;;4.51;85.85
81299;BME280;70766;53.170;18.160;2024-02-04T06:36:17;100615.11;;;4.49;86.11
81299;BME280;70766;53.170;18.160;2024-02-04T06:38:45;100613.95;;;4.47;86.22
81299;BME280;70766;53.170;18.160;2024-02-04T06:41:14;100612.69;;;4.47;86.24
81299;BME280;70766;53.170;18.160;2024-02-04T06:43:42;100608.46;;;4.50;86.13
81299;BME280;70766;53.170;18.160;2024-02-04T06:46:10;100599.72;;;4.55;86.34
81299;BME280;70766;53.170;18.160;2024-02-04T06:48:38;100605.96;;;4.57;86.36
81299;BME280;70766;53.170;18.160;2024-02-04T06:51:06;100605.63;;;4.61;86.16
81299;BME280;70766;53.170;18.160;2024-02-04T06:53:35;100605.35;;;4.65;86.08
81299;BME280;70766;53.170;18.160;2024-02-04T06:56:06;100609.38;;;4.72;86.03
81299;BME280;70766;53.170;18.160;2024-02-04T06:58:37;100609.67;;;4.78;85.77
81299;BME280;70766;53.170;18.160;2024-02-04T07:01:06;100615.56;;;4.81;85.60
81299;BME280;70766;53.170;18.160;2024-02-04T07:03:34;100616.95;;;4.81;85.51
81299;BME280;70766;53.170;18.160;2024-02-04T07:06:02;100621.67;;;4.84;85.66
81299;BME280;70766;53.170;18.160;2024-02-04T07:08:31;100626.54;;;4.89;85.56
81299;BME280;70766;53.170;18.160;2024-02-04T07:10:59;100626.55;;;4.93;85.28
81299;BME280;70766;53.170;18.160;2024-02-04T07:13:27;100630.23;;;4.95;85.42
81299;BME280;70766;53.170;18.160;2024-02-04T07:15:55;100627.42;;;4.95;85.41
81299;BME280;70766;53.170;18.160;2024-02-04T07:18:24;100624.80;;;4.99;85.25
81299;BME280;70766;53.170;18.160;2024-02-04T07:20:52;100613.48;;;5.01;84.87
81299;BME280;70766;53.170;18.160;2024-02-04T07:23:20;100599.98;;;5.07;84.34
81299;BME280;70766;53.170;18.160;2024-02-04T07:25:49;100602.83;;;5.10;84.41
81299;BME280;70766;53.170;18.160;2024-02-04T07:28:17;100601.10;;;5.08;84.29
81299;BME280;70766;53.170;18.160;2024-02-04T07:30:45;100596.35;;;5.08;84.19
81299;BME280;70766;53.170;18.160;2024-02-04T07:33:13;100593.39;;;5.06;84.19
81299;BME280;70766;53.170;18.160;2024-02-04T07:35:41;100587.35;;;5.09;84.20
81299;BME280;70766;53.170;18.160;2024-02-04T07:38:10;100589.14;;;5.11;83.86
81299;BME280;70766;53.170;18.160;2024-02-04T07:40:38;100585.50;;;5.12;84.09
81299;BME280;70766;53.170;18.160;2024-02-04T07:43:06;100592.23;;;5.16;84.16
81299;BME280;70766;53.170;18.160;2024-02-04T07:45:34;100585.36;;;5.23;84.06
81299;BME280;70766;53.170;18.160;2024-02-04T07:48:03;100576.63;;;5.31;83.67
81299;BME280;70766;53.170;18.160;2024-02-04T07:50:32;100571.75;;;5.44;83.58
81299;BME280;70766;53.170;18.160;2024-02-04T07:53:00;100568.05;;;5.56;83.03
81299;BME280;70766;53.170;18.160;2024-02-04T07:55:28;100568.31;;;5.65;82.72
81299;BME280;70766;53.170;18.160;2024-02-04T07:57:56;100566.29;;;5.73;82.49
81299;BME280;70766;53.170;18.160;2024-02-04T08:00:25;100569.02;;;5.77;82.04
81299;BME280;70766;53.170;18.160;2024-02-04T08:02:54;100571.64;;;5.80;81.85
81299;BME280;70766;53.170;18.160;2024-02-04T08:05:23;100575.46;;;5.78;81.55
81299;BME280;70766;53.170;18.160;2024-02-04T08:07:51;100575.65;;;5.75;81.95
81299;BME280;70766;53.170;18.160;2024-02-04T08:10:19;100574.70;;;5.78;81.73
81299;BME280;70766;53.170;18.160;2024-02-04T08:12:47;100575.77;;;5.87;81.76
81299;BME280;70766;53.170;18.160;2024-02-04T08:15:19;100572.89;;;5.94;81.61
81299;BME280;70766;53.170;18.160;2024-02-04T08:17:47;100566.92;;;5.98;81.72
81299;BME280;70766;53.170;18.160;2024-02-04T08:20:15;100568.30;;;5.98;81.69
81299;BME280;70766;53.170;18.160;2024-02-04T08:22:43;100574.13;;;5.97;81.73
81299;BME280;70766;53.170;18.160;2024-02-04T08:25:12;100563.30;;;5.96;81.97
81299;BME280;70766;53.170;18.160;2024-02-04T08:27:40;100560.35;;;5.94;82.04
81299;BME280;70766;53.170;18.160;2024-02-04T08:30:08;100557.34;;;5.98;82.00
81299;BME280;70766;53.170;18.160;2024-02-04T08:32:39;100557.98;;;5.94;82.06
81299;BME280;70766;53.170;18.160;2024-02-04T08:35:08;100547.63;;;6.01;82.00
81299;BME280;70766;53.170;18.160;2024-02-04T08:37:36;100559.70;;;5.93;82.47
81299;BME280;70766;53.170;18.160;2024-02-04T08:40:06;100560.17;;;6.03;82.10
81299;BME280;70766;53.170;18.160;2024-02-04T08:42:35;100561.48;;;6.04;82.25
81299;BME280;70766;53.170;18.160;2024-02-04T08:45:03;100560.91;;;6.05;82.47
81299;BME280;70766;53.170;18.160;2024-02-04T08:47:31;100561.14;;;6.08;82.38
81299;BME280;70766;53.170;18.160;2024-02-04T08:50:00;100555.79;;;6.13;82.38
81299;BME280;70766;53.170;18.160;2024-02-04T08:52:28;100565.96;;;6.05;83.03
81299;BME280;70766;53.170;18.160;2024-02-04T08:54:56;100551.14;;;5.95;83.54
81299;BME280;70766;53.170;18.160;2024-02-04T08:57:24;100539.25;;;5.96;83.86
81299;BME280;70766;53.170;18.160;2024-02-04T08:59:52;100541.90;;;6.02;83.66
81299;BME280;70766;53.170;18.160;2024-02-04T09:02:20;100542.02;;;6.07;83.67
81299;BME280;70766;53.170;18.160;2024-02-04T09:04:48;100536.05;;;6.07;83.83
81299;BME280;70766;53.170;18.160;2024-02-04T09:07:17;100537.37;;;6.13;83.69
81299;BME280;70766;53.170;18.160;2024-02-04T09:09:45;100536.58;;;6.22;83.57
81299;BME280;70766;53.170;18.160;2024-02-04T09:12:13;100535.55;;;6.21;83.56
81299;BME280;70766;53.170;18.160;2024-02-04T09:14:41;100527.23;;;6.23;83.54
81299;BME280;70766;53.170;18.160;2024-02-04T09:17:12;100525.02;;;6.23;83.74
81299;BME280;70766;53.170;18.160;2024-02-04T09:19:41;100523.80;;;6.28;83.58
81299;BME280;70766;53.170;18.160;2024-02-04T09:22:10;100520.84;;;6.33;83.47
81299;BME280;70766;53.170;18.160;2024-02-04T09:24:39;100514.91;;;6.36;83.38
81299;BME280;70766;53.170;18.160;2024-02-04T09:27:07;100513.55;;;6.37;83.33
81299;BME280;70766;53.170;18.160;2024-02-04T09:29:35;100519.55;;;6.36;83.70
81299;BME280;70766;53.170;18.160;2024-02-04T09:32:04;100514.71;;;6.35;83.83
81299;BME280;70766;53.170;18.160;2024-02-04T09:34:33;100516.06;;;6.45;83.52
81299;BME280;70766;53.170;18.160;2024-02-04T09:37:01;100511.19;;;6.42;83.58
81299;BME280;70766;53.170;18.160;2024-02-04T09:39:30;100506.81;;;6.56;83.27
81299;BME280;70766;53.170;18.160;2024-02-04T09:41:59;100508.37;;;6.63;82.99
81299;BME280;70766;53.170;18.160;2024-02-04T09:44:27;100512.39;;;6.68;83.05
81299;BME280;70766;53.170;18.160;2024-02-04T09:46:56;100509.20;;;6.61;83.19
81299;BME280;70766;53.170;18.160;2024-02-04T09:49:27;100512.39;;;6.66;83.13
81299;BME280;70766;53.170;18.160;2024-02-04T09:51:59;100506.08;;;6.70;83.01
81299;BME280;70766;53.170;18.160;2024-02-04T09:54:28;100504.44;;;6.78;82.59
81299;BME280;70766;53.170;18.160;2024-02-04T09:56:58;100507.38;;;6.79;82.44
81299;BME280;70766;53.170;18.160;2024-02-04T09:59:27;100504.55;;;6.86;82.55
81299;BME280;70766;53.170;18.160;2024-02-04T10:01:55;100504.39;;;6.83;82.55
81299;BME280;70766;53.170;18.160;2024-02-04T10:04:24;100503.48;;;6.77;82.74
81299;BME280;70766;53.170;18.160;2024-02-04T10:06:52;100500.70;;;6.78;83.00
81299;BME280;70766;53.170;18.160;2024-02-04T10:09:21;100498.89;;;6.76;82.91
81299;BME280;70766;53.170;18.160;2024-02-04T10:11:49;100494.34;;;6.80;82.72
81299;BME280;70766;53.170;18.160;2024-02-04T10:14:17;100478.09;;;6.77;82.52
81299;BME280;70766;53.170;18.160;2024-02-04T10:16:47;100482.51;;;6.87;82.28
81299;BME280;70766;53.170;18.160;2024-02-04T10:19:15;100478.69;;;6.93;82.39
81299;BME280;70766;53.170;18.160;2024-02-04T10:21:43;100479.70;;;6.95;82.09
81299;BME280;70766;53.170;18.160;2024-02-04T10:24:11;100477.36;;;6.95;81.91
81299;BME280;70766;53.170;18.160;2024-02-04T10:26:40;100475.07;;;6.91;81.80
81299;BME280;70766;53.170;18.160;2024-02-04T10:29:11;100472.16;;;6.91;81.61
81299;BME280;70766;53.170;18.160;2024-02-04T10:31:39;100465.35;;;6.89;81.84
81299;BME280;70766;53.170;18.160;2024-02-04T10:34:09;100458.79;;;6.91;81.65
81299;BME280;70766;53.170;18.160;2024-02-04T10:36:37;100452.92;;;7.02;81.62
81299;BME280;70766;53.170;18.160;2024-02-04T10:39:05;100445.73;;;7.09;82.02
81299;BME280;70766;53.170;18.160;2024-02-04T10:41:35;100441.91;;;7.24;81.28
81299;BME280;70766;53.170;18.160;2024-02-04T10:44:11;100434.02;;;7.52;80.28
81299;BME280;70766;53.170;18.160;2024-02-04T10:46:42;100433.77;;;7.71;79.72
81299;BME280;70766;53.170;18.160;2024-02-04T10:49:15;100427.09;;;7.88;78.86
81299;BME280;70766;53.170;18.160;2024-02-04T10:51:45;100414.03;;;7.95;78.35
81299;BME280;70766;53.170;18.160;2024-02-04T10:54:16;100400.20;;;7.96;77.81
81299;BME280;70766;53.170;18.160;2024-02-04T10:56:55;100388.41;;;8.16;76.81
81299;BME280;70766;53.170;18.160;2024-02-04T10:59:25;100384.90;;;8.26;76.33
81299;BME280;70766;53.170;18.160;2024-02-04T11:01:57;100388.86;;;8.34;75.84
81299;BME280;70766;53.170;18.160;2024-02-04T11:04:26;100377.45;;;8.41;75.25
81299;BME280;70766;53.170;18.160;2024-02-04T11:06:55;100383.53;;;8.32;74.76
81299;BME280;70766;53.170;18.160;2024-02-04T11:09:25;100385.20;;;8.36;74.30
81299;BME280;70766;53.170;18.160;2024-02-04T11:11:55;100376.91;;;8.62;73.50
81299;BME280;70766;53.170;18.160;2024-02-04T11:14:26;100383.60;;;8.68;73.10
81299;BME280;70766;53.170;18.160;2024-02-04T11:17:08;100365.84;;;8.86;72.31
81299;BME280;70766;53.170;18.160;2024-02-04T11:27:57;100348.67;;;9.20;70.00
81299;BME280;70766;53.170;18.160;2024-02-04T11:30:26;100350.95;;;9.50;69.89
81299;BME280;70766;53.170;18.160;2024-02-04T11:32:55;100354.45;;;9.85;68.89
81299;BME280;70766;53.170;18.160;2024-02-04T11:35:24;100350.37;;;10.15;67.48
81299;BME280;70766;53.170;18.160;2024-02-04T11:37:53;100341.08;;;10.24;66.32
81299;BME280;70766;53.170;18.160;2024-02-04T11:40:45;100335.70;;;10.30;65.39
81299;BME280;70766;53.170;18.160;2024-02-04T11:43:14;100338.92;;;10.54;64.24
81299;BME280;70766;53.170;18.160;2024-02-04T11:45:45;100335.67;;;10.47;64.85
81299;BME280;70766;53.170;18.160;2024-02-04T11:48:14;100339.60;;;10.23;64.01
81299;BME280;70766;53.170;18.160;2024-02-04T11:50:52;100340.66;;;9.82;65.25
81299;BME280;70766;53.170;18.160;2024-02-04T11:53:20;100338.20;;;9.64;65.72
81299;BME280;70766;53.170;18.160;2024-02-04T11:55:51;100333.09;;;9.47;65.99
81299;BME280;70766;53.170;18.160;2024-02-04T11:58:20;100325.89;;;9.34;66.42
81299;BME280;70766;53.170;18.160;2024-02-04T12:00:51;100321.16;;;9.26;66.49
81299;BME280;70766;53.170;18.160;2024-02-04T12:03:32;100319.09;;;9.15;66.59
81299;BME280;70766;53.170;18.160;2024-02-04T12:06:02;100323.69;;;9.15;66.76
81299;BME280;70766;53.170;18.160;2024-02-04T12:08:32;100323.98;;;8.95;67.16
81299;BME280;70766;53.170;18.160;2024-02-04T12:11:01;100323.63;;;8.86;67.21
81299;BME280;70766;53.170;18.160;2024-02-04T12:13:30;100332.01;;;8.71;67.80
81299;BME280;70766;53.170;18.160;2024-02-04T12:15:58;100331.34;;;8.63;67.83
81299;BME280;70766;53.170;18.160;2024-02-04T12:18:27;100324.05;;;8.53;68.23
81299;BME280;70766;53.170;18.160;2024-02-04T12:20:55;100327.52;;;8.36;68.54
81299;BME280;70766;53.170;18.160;2024-02-04T12:23:23;100321.21;;;8.33;69.47
81299;BME280;70766;53.170;18.160;2024-02-04T12:25:54;100320.86;;;8.30;70.06
81299;BME280;70766;53.170;18.160;2024-02-04T12:28:22;100313.45;;;8.31;70.10
81299;BME280;70766;53.170;18.160;2024-02-04T12:30:54;100318.23;;;8.30;70.41
81299;BME280;70766;53.170;18.160;2024-02-04T12:33:27;100318.48;;;8.22;70.69
81299;BME280;70766;53.170;18.160;2024-02-04T12:35:55;100319.22;;;8.14;71.14
81299;BME280;70766;53.170;18.160;2024-02-04T12:38:25;100327.27;;;8.10;71.56
81299;BME280;70766;53.170;18.160;2024-02-04T12:41:01;100322.83;;;8.10;71.53
81299;BME280;70766;53.170;18.160;2024-02-04T12:43:29;100329.61;;;8.05;72.02
81299;BME280;70766;53.170;18.160;2024-02-04T12:45:57;100326.05;;;7.99;72.24
81299;BME280;70766;53.170;18.160;2024-02-04T12:48:29;100302.85;;;7.94;71.97
81299;BME280;70766;53.170;18.160;2024-02-04T12:50:57;100305.23;;;7.84;72.54
81299;BME280;70766;53.170;18.160;2024-02-04T12:53:27;100304.27;;;7.85;72.76
81299;BME280;70766;53.170;18.160;2024-02-04T12:55:59;100298.84;;;7.88;72.80
81299;BME280;70766;53.170;18.160;2024-02-04T12:58:30;100294.67;;;7.86;72.94
81299;BME280;70766;53.170;18.160;2024-02-04T13:01:01;100286.42;;;7.92;72.57
81299;BME280;70766;53.170;18.160;2024-02-04T13:03:29;100284.23;;;8.00;72.40
81299;BME280;70766;53.170;18.160;2024-02-04T13:05:58;100278.36;;;8.07;72.04
81299;BME280;70766;53.170;18.160;2024-02-04T13:08:26;100275.57;;;8.11;71.84